Time;durP1;ratioP1;P1;durP2;ratioP2;P2;SDS_P1;SDS_P2;PMS_P1;PMS_P2;Temp;Humidity;BMP_temperature;BMP_pressure;BME280_temperature;BME280_humidity;BME280_pressure;Samples;Min_cycle;Max_cycle;Signal;HPM_P1;HPM_P2
2023/07/08 00:02:10;;;;;;;;;;;;;;;22.50;49.65;101629.88;4988460;28;4427;-75
2023/07/08 00:04:37;;;;;;;;;;;;;;;22.46;49.51;101632.56;4984911;28;4121;-75
2023/07/08 00:07:03;;;;;;;;;;;;;;;22.47;49.50;101625.38;4985492;28;4106;-74
2023/07/08 00:09:30;;;;;;;;;;;;;;;22.48;49.37;101626.91;4986987;28;4131;-75
2023/07/08 00:11:59;;;;;;;;;;;;;;;22.44;49.72;101621.66;4988460;28;4129;-75
2023/07/08 00:14:25;;;;;;;;;;;;;;;22.42;49.45;101618.66;4989139;28;4482;-75
2023/07/08 00:16:52;;;;;;;;;;;;;;;22.41;49.46;101620.06;4988022;28;3971;-75
2023/07/08 00:19:19;;;;;;;;;;;;;;;22.40;49.89;101617.81;4990154;28;4029;-75
2023/07/08 00:21:45;;;;;;;;;;;;;;;22.37;49.52;101631.41;4986359;28;4424;-74
2023/07/08 00:24:12;;;;;;;;;;;;;;;22.35;49.72;101626.25;4984197;28;4086;-76
2023/07/08 00:26:38;;;;;;;;;;;;;;;22.36;49.75;101618.38;4986717;28;4133;-74
2023/07/08 00:29:08;;;;;;;;;;;;;;;22.34;49.48;101624.03;4986406;28;4211;-74
2023/07/08 00:31:34;;;;;;;;;;;;;;;22.32;49.65;101621.78;5002520;28;4066;-75
2023/07/08 00:34:02;;;;;;;;;;;;;;;22.31;49.67;101619.53;5001413;28;3891;-75
2023/07/08 00:36:29;;;;;;;;;;;;;;;22.31;49.66;101613.78;4988391;28;4104;-75
2023/07/08 00:38:56;;;;;;;;;;;;;;;22.29;49.59;101619.47;4984185;28;4159;-75
2023/07/08 00:41:29;;;;;;;;;;;;;;;22.24;49.36;101620.63;4982941;28;4062;-75
2023/07/08 00:43:57;;;;;;;;;;;;;;;22.25;49.40;101630.78;4999148;28;4149;-75
2023/07/08 00:46:29;;;;;;;;;;;;;;;22.27;49.51;101625.88;4996868;28;4483;-75
2023/07/08 00:49:01;;;;;;;;;;;;;;;22.18;49.58;101621.78;4982357;28;3942;-75
2023/07/08 00:51:27;;;;;;;;;;;;;;;22.22;49.13;101624.19;4990181;28;4235;-75
2023/07/08 00:53:54;;;;;;;;;;;;;;;22.21;49.63;101622.66;4986531;28;3951;-75
2023/07/08 00:56:22;;;;;;;;;;;;;;;22.20;49.49;101617.53;4983232;28;4130;-75
2023/07/08 00:58:50;;;;;;;;;;;;;;;22.20;49.41;101620.41;4990040;28;4159;-75
2023/07/08 01:01:17;;;;;;;;;;;;;;;22.19;49.02;101625.41;4981775;28;4121;-74
2023/07/08 01:03:53;;;;;;;;;;;;;;;22.14;49.45;101618.69;4983830;28;4029;-74
2023/07/08 01:06:20;;;;;;;;;;;;;;;22.13;49.03;101625.13;4982979;28;4103;-74
2023/07/08 01:08:47;;;;;;;;;;;;;;;22.15;49.19;101625.22;4999740;28;4120;-74
2023/07/08 01:11:13;;;;;;;;;;;;;;;22.13;49.08;101617.22;4974490;28;4084;-74
2023/07/08 01:13:40;;;;;;;;;;;;;;;22.11;48.92;101622.88;4985471;28;4287;-74
2023/07/08 01:16:07;;;;;;;;;;;;;;;22.11;49.21;101613.47;4987993;28;4078;-74
2023/07/08 01:18:34;;;;;;;;;;;;;;;22.10;49.26;101612.72;4993156;28;3934;-73
2023/07/08 01:21:20;;;;;;;;;;;;;;;22.07;49.20;101614.00;4984689;28;4112;-74
2023/07/08 01:23:46;;;;;;;;;;;;;;;22.05;49.32;101616.78;4982409;28;4010;-74
2023/07/08 01:26:13;;;;;;;;;;;;;;;22.07;49.31;101614.00;4980314;28;6715;-74
2023/07/08 01:28:40;;;;;;;;;;;;;;;22.07;49.24;101619.03;4979812;28;4026;-75
2023/07/08 01:31:07;;;;;;;;;;;;;;;22.06;49.44;101609.66;4976872;28;4298;-74
2023/07/08 01:33:34;;;;;;;;;;;;;;;22.01;49.11;101610.81;4983120;28;4062;-74
2023/07/08 01:36:00;;;;;;;;;;;;;;;22.04;49.45;101603.03;4985407;28;3933;-74
2023/07/08 01:38:26;;;;;;;;;;;;;;;22.04;49.42;101609.53;4985506;28;4485;-74
2023/07/08 01:40:54;;;;;;;;;;;;;;;21.99;49.33;101604.97;4999453;28;4121;-74
2023/07/08 01:43:20;;;;;;;;;;;;;;;22.02;49.40;101606.53;4984097;28;4161;-74
2023/07/08 01:45:47;;;;;;;;;;;;;;;22.01;49.32;101607.91;4988058;28;3964;-74
2023/07/08 01:48:14;;;;;;;;;;;;;;;21.98;49.56;101603.44;4985752;28;4011;-73
2023/07/08 01:50:42;;;;;;;;;;;;;;;21.98;49.55;101594.06;4992885;28;4110;-74
2023/07/08 01:53:10;;;;;;;;;;;;;;;21.95;49.30;101601.84;4986479;28;4036;-74
2023/07/08 01:55:37;;;;;;;;;;;;;;;21.94;49.31;101603.22;4991860;28;3931;-74
2023/07/08 01:58:03;;;;;;;;;;;;;;;21.93;49.56;101598.88;4997766;28;4052;-74
2023/07/08 02:00:30;;;;;;;;;;;;;;;21.92;49.28;101594.47;4984973;28;4032;-74
2023/07/08 02:02:56;;;;;;;;;;;;;;;21.91;49.33;101593.72;4984109;28;3909;-74
2023/07/08 02:05:23;;;;;;;;;;;;;;;21.89;49.51;101587.13;4983813;28;4159;-74
2023/07/08 02:07:49;;;;;;;;;;;;;;;21.88;49.24;101597.91;4983114;28;4172;-74
2023/07/08 02:10:16;;;;;;;;;;;;;;;21.87;49.08;101607.19;4980348;28;4082;-74
2023/07/08 02:12:42;;;;;;;;;;;;;;;21.87;49.31;101602.16;4981145;28;4074;-75
2023/07/08 02:15:09;;;;;;;;;;;;;;;21.84;49.22;101605.59;4984759;28;4067;-74
2023/07/08 02:17:35;;;;;;;;;;;;;;;21.85;49.40;101609.97;4982010;28;4837;-74
2023/07/08 02:20:02;;;;;;;;;;;;;;;21.82;49.05;101606.22;4984008;28;4013;-74
2023/07/08 02:22:29;;;;;;;;;;;;;;;21.79;49.31;101596.00;5000716;28;4053;-74
2023/07/08 02:24:56;;;;;;;;;;;;;;;21.77;49.42;101598.03;5001996;28;4142;-75
2023/07/08 02:27:23;;;;;;;;;;;;;;;21.77;49.29;101592.25;4981899;28;4197;-72
2023/07/08 02:29:49;;;;;;;;;;;;;;;21.77;49.28;101586.50;4982713;28;4127;-74
2023/07/08 02:32:16;;;;;;;;;;;;;;;21.78;49.12;101593.75;4983985;28;4092;-74
2023/07/08 02:34:43;;;;;;;;;;;;;;;21.73;49.20;101593.53;4982714;28;4006;-74
2023/07/08 02:37:09;;;;;;;;;;;;;;;21.74;49.21;101594.28;4997889;28;4265;-73
2023/07/08 02:39:35;;;;;;;;;;;;;;;21.74;49.16;101595.03;5004390;28;4144;-74
2023/07/08 02:42:02;;;;;;;;;;;;;;;21.73;49.31;101593.53;4983043;28;4093;-74
2023/07/08 02:44:28;;;;;;;;;;;;;;;21.73;49.22;101593.53;5001739;28;4287;-74
2023/07/08 02:46:55;;;;;;;;;;;;;;;21.71;49.08;101590.53;5000799;28;4066;-74
2023/07/08 02:49:21;;;;;;;;;;;;;;;21.69;49.17;101593.34;4991980;28;4108;-73
2023/07/08 02:51:48;;;;;;;;;;;;;;;21.69;48.90;101590.44;4991712;28;4066;-74
2023/07/08 02:54:15;;;;;;;;;;;;;;;21.67;48.89;101596.09;4988826;28;4078;-73
2023/07/08 02:56:41;;;;;;;;;;;;;;;21.65;48.97;101592.38;4983957;28;4305;-73
2023/07/08 02:59:08;;;;;;;;;;;;;;;21.63;48.78;101598.78;4986105;28;4120;-73
2023/07/08 03:01:41;;;;;;;;;;;;;;;21.62;48.98;101594.38;4984650;28;4179;-73
2023/07/08 03:04:12;;;;;;;;;;;;;;;21.61;49.13;101590.00;4997608;28;4183;-69
2023/07/08 03:06:42;;;;;;;;;;;;;;;21.62;49.23;101585.00;4981622;28;4178;-74
2023/07/08 03:09:09;;;;;;;;;;;;;;;21.58;49.14;101588.41;4984592;28;4054;-73
2023/07/08 03:11:35;;;;;;;;;;;;;;;21.57;49.03;101586.16;5000163;28;4595;-74
2023/07/08 03:14:02;;;;;;;;;;;;;;;21.55;49.18;101583.91;4983527;28;4212;-74
2023/07/08 03:16:28;;;;;;;;;;;;;;;21.56;48.90;101579.66;4989750;28;3958;-74
2023/07/08 03:18:55;;;;;;;;;;;;;;;21.53;48.79;101584.56;5000844;28;4350;-74
2023/07/08 03:21:21;;;;;;;;;;;;;;;21.51;48.85;101584.47;4988605;28;4020;-74
2023/07/08 03:23:48;;;;;;;;;;;;;;;21.49;48.68;101575.72;5002717;28;4220;-74
2023/07/08 03:26:15;;;;;;;;;;;;;;;21.48;48.81;101584.97;4996131;28;4096;-74
2023/07/08 03:28:44;;;;;;;;;;;;;;;21.49;49.01;101577.84;4980067;28;3975;-74
2023/07/08 03:31:10;;;;;;;;;;;;;;;21.47;48.95;101572.72;4985810;28;4260;-74
2023/07/08 03:33:37;;;;;;;;;;;;;;;21.46;48.89;101570.47;5002159;28;4025;-75
2023/07/08 03:36:04;;;;;;;;;;;;;;;21.42;48.90;101576.03;5000770;28;5008;-74
2023/07/08 03:38:30;;;;;;;;;;;;;;;21.46;48.91;101576.22;5001413;28;4123;-74
2023/07/08 03:40:57;;;;;;;;;;;;;;;21.45;49.34;101577.63;4992871;28;4094;-74
2023/07/08 03:43:24;;;;;;;;;;;;;;;21.42;49.25;101573.91;4983800;28;4099;-74
2023/07/08 03:45:50;;;;;;;;;;;;;;;21.46;49.46;101582.00;4988445;28;4004;-74
2023/07/08 03:48:16;;;;;;;;;;;;;;;21.45;49.47;101574.75;4997600;28;4166;-74
2023/07/08 03:50:43;;;;;;;;;;;;;;;21.46;49.68;101579.09;4985069;28;3980;-74
2023/07/08 03:53:10;;;;;;;;;;;;;;;21.46;49.38;101584.88;4988306;28;4052;-74
2023/07/08 03:55:36;;;;;;;;;;;;;;;21.47;49.32;101583.50;4986720;28;4103;-74
2023/07/08 03:58:04;;;;;;;;;;;;;;;21.46;49.61;101582.00;4997151;28;4034;-75
2023/07/08 04:00:32;;;;;;;;;;;;;;;21.48;49.64;101576.34;4999970;28;4051;-74
2023/07/08 04:03:00;;;;;;;;;;;;;;;21.47;49.63;101571.97;5000513;28;4075;-75
2023/07/08 04:05:26;;;;;;;;;;;;;;;21.45;49.67;101568.97;5000335;28;4058;-75
2023/07/08 04:07:53;;;;;;;;;;;;;;;21.46;49.77;101570.47;5004558;28;4091;-74
2023/07/08 04:10:19;;;;;;;;;;;;;;;21.48;49.94;101571.31;4986881;28;4047;-74
2023/07/08 04:12:46;;;;;;;;;;;;;;;21.48;49.90;101579.22;4984710;28;4936;-75
2023/07/08 04:15:12;;;;;;;;;;;;;;;21.44;49.91;101584.75;4987634;28;4078;-74
2023/07/08 04:17:45;;;;;;;;;;;;;;;21.46;50.28;101582.00;5000770;28;4400;-73
2023/07/08 04:20:14;;;;;;;;;;;;;;;21.45;50.19;101586.28;4987845;28;4150;-74
2023/07/08 04:22:40;;;;;;;;;;;;;;;21.48;50.17;101576.34;4985689;28;4155;-75
2023/07/08 04:25:07;;;;;;;;;;;;;;;21.50;50.28;101585.09;4987923;28;3939;-75
2023/07/08 04:27:33;;;;;;;;;;;;;;;21.49;50.43;101574.97;4983206;28;5124;-72
2023/07/08 04:29:59;;;;;;;;;;;;;;;21.48;50.49;101576.34;4993255;28;4047;-74
2023/07/08 04:32:26;;;;;;;;;;;;;;;21.48;50.94;101574.19;4984066;28;4067;-75
2023/07/08 04:34:52;;;;;;;;;;;;;;;21.49;50.96;101578.59;4985112;28;4281;-75
2023/07/08 04:37:19;;;;;;;;;;;;;;;21.50;51.14;101576.44;4982387;28;4259;-74
2023/07/08 04:39:45;;;;;;;;;;;;;;;21.50;51.29;101585.84;4994514;28;4084;-74
2023/07/08 04:42:15;;;;;;;;;;;;;;;21.49;51.26;101587.25;4988173;28;4200;-74
2023/07/08 04:44:41;;;;;;;;;;;;;;;19.78;56.45;101589.75;4981476;28;4152;-75
2023/07/08 04:47:13;;;;;;;;;;;;;;;17.79;65.03;101589.19;4983662;28;4074;-75
2023/07/08 04:49:41;;;;;;;;;;;;;;;17.67;65.96;101585.50;4983744;28;4118;-76
2023/07/08 04:52:08;;;;;;;;;;;;;;;17.63;66.23;101593.06;4984082;28;4118;-75
2023/07/08 04:54:34;;;;;;;;;;;;;;;17.83;65.61;101588.78;4982643;28;3991;-76
2023/07/08 04:57:01;;;;;;;;;;;;;;;17.90;65.89;101584.94;4982920;28;4291;-70
2023/07/08 04:59:27;;;;;;;;;;;;;;;17.91;67.32;101585.69;4985411;28;4008;-67
2023/07/08 05:01:53;;;;;;;;;;;;;;;18.04;67.50;101581.56;4984244;28;4155;-67
2023/07/08 05:04:21;;;;;;;;;;;;;;;18.07;67.62;101592.53;4982844;28;3986;-67
2023/07/08 05:06:47;;;;;;;;;;;;;;;18.10;67.97;101579.09;4980356;28;4226;-67
2023/07/08 05:09:14;;;;;;;;;;;;;;;18.34;67.44;101589.31;4982509;28;4194;-67
2023/07/08 05:11:43;;;;;;;;;;;;;;;18.66;67.56;101584.19;4987142;28;4189;-67
2023/07/08 05:14:10;;;;;;;;;;;;;;;18.63;68.66;101582.56;4982402;28;4276;-68
2023/07/08 05:16:37;;;;;;;;;;;;;;;19.17;64.64;101576.00;4985745;28;4084;-68
2023/07/08 05:19:03;;;;;;;;;;;;;;;19.43;62.38;101579.00;4984054;28;4200;-67
2023/07/08 05:21:33;;;;;;;;;;;;;;;19.55;63.24;101585.50;4986634;28;4220;-67
2023/07/08 05:24:00;;;;;;;;;;;;;;;19.59;62.47;101594.34;4984334;28;4159;-67
2023/07/08 05:26:26;;;;;;;;;;;;;;;19.78;61.91;101589.75;4987746;28;4068;-67
2023/07/08 05:28:53;;;;;;;;;;;;;;;19.81;61.01;101588.50;4986791;28;4048;-67
2023/07/08 05:31:19;;;;;;;;;;;;;;;19.96;61.04;101593.72;4987234;28;4066;-67
2023/07/08 05:33:45;;;;;;;;;;;;;;;20.11;61.04;101592.41;4985611;28;4201;-67
2023/07/08 05:36:12;;;;;;;;;;;;;;;20.11;63.22;101597.44;4983581;28;4343;-68
2023/07/08 05:38:38;;;;;;;;;;;;;;;20.23;61.80;101589.53;4985940;28;4018;-67
2023/07/08 05:41:06;;;;;;;;;;;;;;;20.22;62.13;101597.41;4987254;28;3971;-67
2023/07/08 05:43:32;;;;;;;;;;;;;;;20.36;60.14;101591.72;4983679;28;4299;-67
2023/07/08 05:45:59;;;;;;;;;;;;;;;20.56;60.13;101588.53;4986028;28;4223;-67
2023/07/08 05:48:37;;;;;;;;;;;;;;;20.52;59.22;101589.03;4983228;28;4005;-67
2023/07/08 05:51:03;;;;;;;;;;;;;;;20.64;59.99;101592.66;4982925;28;4225;-67
2023/07/08 05:53:30;;;;;;;;;;;;;;;20.59;58.66;101590.94;4983491;28;4048;-66
2023/07/08 05:55:56;;;;;;;;;;;;;;;20.81;59.36;101596.44;4984337;28;4155;-67
2023/07/08 05:58:22;;;;;;;;;;;;;;;20.84;58.36;101601.66;4981547;28;4187;-67
2023/07/08 06:00:56;;;;;;;;;;;;;;;20.96;58.68;101615.25;4987420;28;4119;-67
2023/07/08 06:03:23;;;;;;;;;;;;;;;21.08;59.18;101613.06;4982522;28;4236;-67
2023/07/08 06:05:50;;;;;;;;;;;;;;;21.09;59.31;101606.66;4983724;28;4033;-67
2023/07/08 06:08:16;;;;;;;;;;;;;;;21.02;59.38;101604.09;4982996;28;4159;-67
2023/07/08 06:10:43;;;;;;;;;;;;;;;21.14;58.52;101610.50;4982368;28;4271;-68
2023/07/08 06:13:10;;;;;;;;;;;;;;;21.36;59.05;101601.59;4978785;28;4411;-66
2023/07/08 06:15:37;;;;;;;;;;;;;;;21.48;57.98;101605.16;4981651;28;4097;-67
2023/07/08 06:18:03;;;;;;;;;;;;;;;21.55;57.95;101606.97;4980616;28;4066;-67
2023/07/08 06:20:30;;;;;;;;;;;;;;;21.49;56.98;101610.28;4984274;28;4632;-67
2023/07/08 06:22:56;;;;;;;;;;;;;;;21.57;57.08;101609.97;4988245;28;4173;-67
2023/07/08 06:25:23;;;;;;;;;;;;;;;21.63;56.51;101613.19;4986361;28;4099;-67
2023/07/08 06:27:49;;;;;;;;;;;;;;;21.70;57.54;101617.88;4982855;28;5069;-67
2023/07/08 06:30:18;;;;;;;;;;;;;;;21.74;56.31;101617.34;4989504;28;4122;-67
2023/07/08 06:32:45;;;;;;;;;;;;;;;21.82;56.22;101606.22;4988318;28;4164;-70
2023/07/08 06:35:11;;;;;;;;;;;;;;;21.82;56.13;101606.22;4985504;28;4260;-73
2023/07/08 06:37:38;;;;;;;;;;;;;;;21.90;56.25;101600.91;4980914;28;4190;-69
2023/07/08 06:40:04;;;;;;;;;;;;;;;21.89;55.89;101598.66;4979578;28;4028;-69
2023/07/08 06:42:31;;;;;;;;;;;;;;;21.89;55.73;101601.53;4984994;28;5104;-69
2023/07/08 06:45:05;;;;;;;;;;;;;;;21.89;56.14;101598.66;5000223;28;4254;-69
2023/07/08 06:47:32;;;;;;;;;;;;;;;21.91;55.92;101601.63;4990190;28;4151;-69
2023/07/08 06:49:58;;;;;;;;;;;;;;;21.91;55.64;101613.19;4986744;28;4119;-69
2023/07/08 06:52:25;;;;;;;;;;;;;;;21.91;55.39;101605.25;4994152;28;4129;-69
2023/07/08 06:54:51;;;;;;;;;;;;;;;21.93;55.64;101604.63;4986764;28;3989;-69
2023/07/08 06:57:18;;;;;;;;;;;;;;;21.94;55.59;101600.34;4989859;28;4140;-69
2023/07/08 06:59:44;;;;;;;;;;;;;;;21.95;55.05;101601.84;4992248;28;5129;-69
2023/07/08 07:02:11;;;;;;;;;;;;;;;21.97;55.04;101599.09;4983819;28;4321;-69
2023/07/08 07:04:37;;;;;;;;;;;;;;;21.94;55.60;101594.56;4985769;28;4186;-69
2023/07/08 07:07:04;;;;;;;;;;;;;;;21.99;55.27;101602.06;4991203;28;4055;-69
2023/07/08 07:09:31;;;;;;;;;;;;;;;22.05;55.16;101595.84;4983119;28;3987;-69
2023/07/08 07:11:58;;;;;;;;;;;;;;;22.05;55.08;101599.47;4986799;28;4105;-69
2023/07/08 07:14:24;;;;;;;;;;;;;;;22.06;55.00;101594.44;4989395;28;4129;-69
2023/07/08 07:16:54;;;;;;;;;;;;;;;22.06;54.81;101601.00;4988974;28;4039;-69
2023/07/08 07:19:33;;;;;;;;;;;;;;;22.07;54.78;101596.69;4991908;28;4205;-69
2023/07/08 07:22:00;;;;;;;;;;;;;;;22.07;54.89;101596.69;4992123;28;4113;-69
2023/07/08 07:24:26;;;;;;;;;;;;;;;22.09;54.72;101598.94;4988189;28;4046;-69
2023/07/08 07:26:53;;;;;;;;;;;;;;;22.11;54.63;101593.28;4987577;28;4260;-69
2023/07/08 07:29:20;;;;;;;;;;;;;;;22.11;54.68;101591.16;4989619;28;4131;-69
2023/07/08 07:31:47;;;;;;;;;;;;;;;22.12;54.30;101592.63;4989586;28;4085;-69
2023/07/08 07:34:14;;;;;;;;;;;;;;;22.13;54.59;101587.63;4988287;28;4142;-69
2023/07/08 07:36:40;;;;;;;;;;;;;;;22.14;54.16;101589.09;4986080;28;3964;-69
2023/07/08 07:39:07;;;;;;;;;;;;;;;22.14;54.29;101589.84;4994942;28;4008;-68
2023/07/08 07:41:33;;;;;;;;;;;;;;;22.15;54.41;101597.13;4991154;28;4285;-68
2023/07/08 07:43:59;;;;;;;;;;;;;;;22.13;54.29;101593.41;4988365;28;3952;-69
2023/07/08 07:46:26;;;;;;;;;;;;;;;22.20;54.33;101594.44;4984544;28;4210;-69
2023/07/08 07:48:53;;;;;;;;;;;;;;;22.20;54.11;101591.56;4980996;28;4249;-68
2023/07/08 07:51:20;;;;;;;;;;;;;;;22.20;53.93;101592.31;4986346;28;4127;-70
2023/07/08 07:53:46;;;;;;;;;;;;;;;22.27;54.12;101584.75;4990795;28;4098;-71
2023/07/08 07:56:12;;;;;;;;;;;;;;;22.30;53.67;101589.22;4984142;28;4466;-70
2023/07/08 07:58:39;;;;;;;;;;;;;;;22.29;53.73;101582.69;4987198;28;4004;-70
2023/07/08 08:01:06;;;;;;;;;;;;;;;22.35;53.46;101588.75;4985054;28;4076;-67
2023/07/08 08:03:32;;;;;;;;;;;;;;;22.41;53.86;101582.56;4998075;28;4043;-67
2023/07/08 08:05:59;;;;;;;;;;;;;;;22.40;53.48;101591.84;4990660;28;4011;-71
2023/07/08 08:08:26;;;;;;;;;;;;;;;22.44;53.35;101592.78;4977793;28;4196;-71
2023/07/08 08:10:52;;;;;;;;;;;;;;;22.41;53.58;101591.22;4985525;28;4048;-71
2023/07/08 08:13:19;;;;;;;;;;;;;;;22.39;53.70;101582.44;4986693;28;4114;-70
2023/07/08 08:15:45;;;;;;;;;;;;;;;22.37;53.85;101582.34;4985363;28;4025;-71
2023/07/08 08:18:11;;;;;;;;;;;;;;;22.36;53.72;101586.63;4985043;28;4206;-71
2023/07/08 08:20:39;;;;;;;;;;;;;;;22.36;53.55;101593.16;4982610;28;4145;-71
2023/07/08 08:23:06;;;;;;;;;;;;;;;22.36;53.74;101598.91;4985731;28;4049;-71
2023/07/08 08:25:32;;;;;;;;;;;;;;;22.36;53.66;101587.38;4981852;28;4062;-71
2023/07/08 08:27:59;;;;;;;;;;;;;;;22.36;53.66;101593.16;4987920;28;4144;-72
2023/07/08 08:30:25;;;;;;;;;;;;;;;22.37;53.77;101585.22;4984498;28;4449;-72
2023/07/08 08:32:52;;;;;;;;;;;;;;;22.37;53.78;101585.22;4987062;28;4100;-71
2023/07/08 08:35:18;;;;;;;;;;;;;;;22.39;53.75;101591.09;4987705;28;4302;-71
2023/07/08 08:37:45;;;;;;;;;;;;;;;22.39;53.91;101591.09;4982982;28;4145;-72
2023/07/08 08:40:12;;;;;;;;;;;;;;;22.40;53.64;101598.34;4985854;28;4144;-71
2023/07/08 08:42:40;;;;;;;;;;;;;;;22.41;53.74;101593.34;4984035;28;4099;-72
2023/07/08 08:45:06;;;;;;;;;;;;;;;22.40;53.43;101589.69;4988014;28;4418;-73
2023/07/08 08:47:39;;;;;;;;;;;;;;;22.41;53.44;101585.44;4983705;28;4308;-72
2023/07/08 08:50:24;;;;;;;;;;;;;;;22.41;53.49;101594.09;4985223;28;4321;-72
2023/07/08 08:52:51;;;;;;;;;;;;;;;22.41;53.68;101594.09;4983935;28;4056;-72
2023/07/08 08:55:17;;;;;;;;;;;;;;;22.42;53.51;101601.34;4981278;28;4156;-72
2023/07/08 08:57:53;;;;;;;;;;;;;;;22.42;53.78;101598.47;4982760;28;3997;-72
2023/07/08 09:00:23;;;;;;;;;;;;;;;22.41;53.75;101594.09;4991251;28;4124;-72
2023/07/08 09:02:53;;;;;;;;;;;;;;;22.43;53.37;101597.09;4984024;28;3963;-72
2023/07/08 09:05:20;;;;;;;;;;;;;;;22.53;53.27;101593.94;4982439;28;5360;-71
2023/07/08 09:07:46;;;;;;;;;;;;;;;22.55;53.30;101585.38;4978337;28;3985;-72
2023/07/08 09:10:21;;;;;;;;;;;;;;;22.51;53.45;101591.69;4983512;28;4200;-71
2023/07/08 09:12:48;;;;;;;;;;;;;;;22.52;53.32;101590.31;4980566;28;4326;-72
2023/07/08 09:15:15;;;;;;;;;;;;;;;22.54;53.36;101583.88;4995527;28;4181;-71
2023/07/08 09:17:41;;;;;;;;;;;;;;;22.55;53.17;101591.16;4984836;28;4190;-71
2023/07/08 09:20:24;;;;;;;;;;;;;;;22.58;53.18;101595.63;4987973;28;4185;-72
2023/07/08 09:22:56;;;;;;;;;;;;;;;22.64;53.33;101586.53;4982144;28;4090;-68
2023/07/08 09:25:28;;;;;;;;;;;;;;;23.09;54.33;101588.66;5001236;28;4483;-66
2023/07/08 09:27:54;;;;;;;;;;;;;;;23.19;52.82;101586.28;4988057;28;4136;-65
2023/07/08 09:30:21;;;;;;;;;;;;;;;23.24;52.58;101581.41;4986120;28;4103;-64
2023/07/08 09:32:48;;;;;;;;;;;;;;;23.29;52.56;101574.41;4988930;28;4481;-68
2023/07/08 09:35:23;;;;;;;;;;;;;;;23.22;53.11;101584.97;4986717;28;4118;-68
2023/07/08 09:37:50;;;;;;;;;;;;;;;22.95;53.15;101575.06;4982088;28;4114;-69
2023/07/08 09:40:17;;;;;;;;;;;;;;;22.86;53.42;101581.06;4983949;28;4134;-69
2023/07/08 09:42:44;;;;;;;;;;;;;;;22.82;53.25;101566.47;4986945;28;4078;-68
2023/07/08 09:45:12;;;;;;;;;;;;;;;22.80;53.55;101570.00;4986529;28;4330;-69
2023/07/08 09:47:40;;;;;;;;;;;;;;;22.79;53.28;101571.38;4984364;28;4040;-68
2023/07/08 09:50:16;;;;;;;;;;;;;;;22.77;53.54;101577.06;4987580;28;4269;-68
2023/07/08 09:52:42;;;;;;;;;;;;;;;22.76;53.55;101582.06;4986192;28;3963;-68
2023/07/08 09:55:11;;;;;;;;;;;;;;;22.72;53.81;101581.91;4989528;28;4931;-72
2023/07/08 09:57:38;;;;;;;;;;;;;;;22.78;53.72;101585.06;4982548;28;4233;-67
2023/07/08 10:00:11;;;;;;;;;;;;;;;22.83;53.68;101580.22;4988651;28;3941;-67
2023/07/08 10:02:42;;;;;;;;;;;;;;;22.82;53.72;101578.75;4986946;28;4152;-68
2023/07/08 10:05:29;;;;;;;;;;;;;;;22.83;53.81;101574.44;4984391;28;4119;-69
2023/07/08 10:07:56;;;;;;;;;;;;;;;22.83;53.63;101588.91;4990120;28;4227;-68
2023/07/08 10:10:24;;;;;;;;;;;;;;;22.82;53.28;101581.63;4987749;28;4116;-67
2023/07/08 10:12:57;;;;;;;;;;;;;;;22.81;53.28;101583.03;4990188;28;3924;-68
2023/07/08 10:15:26;;;;;;;;;;;;;;;22.83;53.23;101585.25;5004516;28;5260;-68
2023/07/08 10:17:53;;;;;;;;;;;;;;;22.83;53.09;101576.59;4987334;28;4269;-67
2023/07/08 10:20:19;;;;;;;;;;;;;;;22.83;53.36;101574.44;5003438;28;4114;-68
2023/07/08 10:22:54;;;;;;;;;;;;;;;22.83;53.10;101579.50;4993016;28;4003;-68
2023/07/08 10:25:27;;;;;;;;;;;;;;;22.83;53.18;101580.22;4994684;28;4431;-68
2023/07/08 10:27:57;;;;;;;;;;;;;;;22.83;53.15;101577.34;5005349;28;4362;-68
2023/07/08 10:30:23;;;;;;;;;;;;;;;22.84;53.13;101578.09;4990444;28;4014;-68
2023/07/08 10:32:55;;;;;;;;;;;;;;;22.86;53.47;101586.84;4991418;28;4065;-67
2023/07/08 10:35:28;;;;;;;;;;;;;;;22.84;53.31;101575.19;4992430;28;4474;-67
2023/07/08 10:38:13;;;;;;;;;;;;;;;22.84;53.15;101580.97;4988883;28;4068;-67
2023/07/08 10:40:49;;;;;;;;;;;;;;;22.85;53.38;101573.81;4993423;28;4183;-67
2023/07/08 10:43:21;;;;;;;;;;;;;;;22.85;53.21;101570.94;4993448;28;4127;-66
2023/07/08 10:45:51;;;;;;;;;;;;;;;22.85;53.37;101571.66;5003670;28;6250;-66
2023/07/08 10:48:27;;;;;;;;;;;;;;;22.88;53.51;101567.47;4989603;28;4452;-66
2023/07/08 10:51:02;;;;;;;;;;;;;;;22.87;53.47;101553.69;4991143;28;4027;-66
2023/07/08 10:53:38;;;;;;;;;;;;;;;22.88;53.42;101564.59;4992523;28;3953;-65
2023/07/08 10:56:12;;;;;;;;;;;;;;;22.88;53.51;101569.63;4988861;28;4043;-66
2023/07/08 10:58:49;;;;;;;;;;;;;;;22.90;53.26;101567.56;4988604;28;4193;-66
2023/07/08 11:01:34;;;;;;;;;;;;;;;22.90;53.54;101561.78;4991476;28;3980;-69
2023/07/08 11:04:10;;;;;;;;;;;;;;;22.92;53.48;101553.22;4990241;28;4183;-73
2023/07/08 11:06:43;;;;;;;;;;;;;;;22.92;53.56;101559.00;4998971;28;4307;-74
2023/07/08 11:09:10;;;;;;;;;;;;;;;22.94;53.60;101555.47;4998971;28;4452;-73
2023/07/08 11:11:40;;;;;;;;;;;;;;;22.96;54.05;101559.19;4990988;28;4480;-73
2023/07/08 11:14:10;;;;;;;;;;;;;;;22.96;54.12;101553.41;4992201;28;4026;-73
2023/07/08 11:16:38;;;;;;;;;;;;;;;22.95;54.13;101566.38;5009287;28;4007;-73
2023/07/08 11:19:07;;;;;;;;;;;;;;;22.95;54.08;101569.28;4993377;28;4285;-74
2023/07/08 11:21:52;;;;;;;;;;;;;;;22.95;54.30;101560.59;4992244;28;3969;-73
2023/07/08 11:24:21;;;;;;;;;;;;;;;22.96;54.43;101550.53;4981829;28;4039;-75
2023/07/08 11:26:55;;;;;;;;;;;;;;;22.97;54.25;101537.56;4990930;28;4008;-74
2023/07/08 11:29:36;;;;;;;;;;;;;;;22.99;54.42;101529.03;4991806;28;3944;-75
2023/07/08 11:32:03;;;;;;;;;;;;;;;22.98;54.25;101538.34;5005434;28;4381;-74
2023/07/08 11:34:29;;;;;;;;;;;;;;;23.00;54.41;101527.66;4984511;28;4115;-73
2023/07/08 11:36:56;;;;;;;;;;;;;;;23.05;54.43;101533.63;4987275;28;4663;-72
2023/07/08 11:39:32;;;;;;;;;;;;;;;23.00;54.46;101536.31;5005783;28;4033;-72
2023/07/08 11:42:17;;;;;;;;;;;;;;;23.05;54.50;101533.63;4994020;28;4099;-72
2023/07/08 11:44:47;;;;;;;;;;;;;;;23.00;54.62;101533.44;4990451;28;4095;-72
2023/07/08 11:47:15;;;;;;;;;;;;;;;23.03;54.60;101536.41;5004982;28;4167;-72
2023/07/08 11:49:41;;;;;;;;;;;;;;;23.04;54.54;101535.00;4990975;28;4070;-72
2023/07/08 11:52:12;;;;;;;;;;;;;;;23.03;54.66;101534.25;4987641;28;4172;-71
2023/07/08 11:54:38;;;;;;;;;;;;;;;23.03;54.55;101524.84;4995520;28;4407;-71
2023/07/08 11:57:15;;;;;;;;;;;;;;;23.04;54.60;101529.97;4997790;28;4219;-72
2023/07/08 11:59:42;;;;;;;;;;;;;;;23.00;54.85;101524.75;4991754;28;4043;-71
2023/07/08 12:02:12;;;;;;;;;;;;;;;23.04;54.78;101526.34;4984259;28;4098;-72
2023/07/08 12:04:55;;;;;;;;;;;;;;;23.05;54.84;101524.94;4988741;28;4162;-72
2023/07/08 12:07:32;;;;;;;;;;;;;;;23.03;54.92;101527.75;4985153;28;4235;-72
2023/07/08 12:10:19;;;;;;;;;;;;;;;23.04;54.65;101523.44;4987966;28;4200;-73
2023/07/08 12:12:49;;;;;;;;;;;;;;;23.05;54.64;101519.19;4993136;28;4019;-72
2023/07/08 12:15:21;;;;;;;;;;;;;;;23.06;54.97;101517.75;4979310;28;4053;-72
2023/07/08 12:18:03;;;;;;;;;;;;;;;23.05;54.78;101517.03;4987835;28;4090;-72
2023/07/08 12:20:31;;;;;;;;;;;;;;;23.08;55.07;101517.84;4984296;28;3980;-71
2023/07/08 12:22:57;;;;;;;;;;;;;;;23.08;54.90;101512.09;4985661;28;4013;-71
2023/07/08 12:25:26;;;;;;;;;;;;;;;23.07;55.16;101516.38;4987674;28;4126;-72
2023/07/08 12:27:52;;;;;;;;;;;;;;;23.10;54.90;101515.06;4986674;28;4481;-72
2023/07/08 12:30:19;;;;;;;;;;;;;;;23.08;55.09;101520.75;4985685;28;4020;-72
2023/07/08 12:32:46;;;;;;;;;;;;;;;23.13;55.08;101513.75;4987499;28;4204;-67
2023/07/08 12:35:27;;;;;;;;;;;;;;;23.28;54.76;101512.25;5005153;28;4168;-68
2023/07/08 12:37:59;;;;;;;;;;;;;;;23.47;54.36;101500.09;4985524;28;4228;-68
2023/07/08 12:40:26;;;;;;;;;;;;;;;23.42;54.55;101504.94;5003983;28;4260;-71
2023/07/08 12:42:52;;;;;;;;;;;;;;;23.38;54.74;101504.03;4985223;28;4076;-74
2023/07/08 12:45:20;;;;;;;;;;;;;;;23.28;55.11;101495.66;4987341;28;4129;-72
2023/07/08 12:47:46;;;;;;;;;;;;;;;23.30;55.05;101487.09;4987303;28;4132;-72
2023/07/08 12:50:13;;;;;;;;;;;;;;;23.27;55.50;101488.38;4989376;28;4512;-71
2023/07/08 12:52:39;;;;;;;;;;;;;;;23.30;55.37;101486.34;4988690;28;4058;-71
2023/07/08 12:55:08;;;;;;;;;;;;;;;23.30;55.28;101492.88;4986551;28;4166;-71